Time;durP1;ratioP1;P1;durP2;ratioP2;P2;SDS_P1;SDS_P2;PMS_P1;PMS_P2;Temp;Humidity;BMP_temperature;BMP_pressure;BME280_temperature;BME280_humidity;BME280_pressure;Samples;Min_cycle;Max_cycle;Signal;HPM_P1;HPM_P2
2022/08/07 00:01:56;;;;;;;2.80;0.73;;;;;;;;;;5070750;28;20909;-70
2022/08/07 00:04:22;;;;;;;0.60;0.60;;;;;;;;;;5058345;28;20434;-69
2022/08/07 00:06:48;;;;;;;1.80;0.80;;;;;;;;;;5068052;28;20993;-69
2022/08/07 00:09:14;;;;;;;1.03;0.70;;;;;;;;;;5061578;28;20500;-69
2022/08/07 00:11:40;;;;;;;0.60;0.60;;;;;;;;;;5061251;28;20851;-70
2022/08/07 00:14:06;;;;;;;0.53;0.53;;;;;;;;;;5071196;28;20417;-68
2022/08/07 00:16:32;;;;;;;1.40;0.97;;;;;;;;;;5072704;28;21001;-69
2022/08/07 00:18:58;;;;;;;0.70;0.70;;;;;;;;;;5070862;28;20524;-69
2022/08/07 00:21:24;;;;;;;0.60;0.60;;;;;;;;;;5072191;28;20930;-69
2022/08/07 00:23:50;;;;;;;2.10;0.70;;;;;;;;;;5072545;28;20743;-69
2022/08/07 00:26:16;;;;;;;0.50;0.50;;;;;;;;;;5072087;28;20435;-69
2022/08/07 00:28:43;;;;;;;1.67;0.70;;;;;;;;;;5070154;28;20453;-70
2022/08/07 00:31:09;;;;;;;7.60;1.00;;;;;;;;;;5053709;28;20794;-69
2022/08/07 00:33:37;;;;;;;0.50;0.50;;;;;;;;;;5052304;28;20418;-69
2022/08/07 00:36:03;;;;;;;1.00;0.90;;;;;;;;;;5053824;28;20438;-70
2022/08/07 00:38:30;;;;;;;1.37;0.73;;;;;;;;;;5058647;28;20548;-69
2022/08/07 00:40:55;;;;;;;0.77;0.67;;;;;;;;;;5076481;28;20422;-69
2022/08/07 00:43:21;;;;;;;2.43;0.73;;;;;;;;;;5074141;28;20449;-70
2022/08/07 00:45:47;;;;;;;0.60;0.60;;;;;;;;;;5076250;28;20471;-68
2022/08/07 00:48:13;;;;;;;2.33;0.60;;;;;;;;;;5076569;28;20472;-69
2022/08/07 00:50:40;;;;;;;0.70;0.70;;;;;;;;;;5065639;28;20938;-69
2022/08/07 00:53:06;;;;;;;0.57;0.57;;;;;;;;;;5056049;28;20430;-69
2022/08/07 00:55:32;;;;;;;1.00;1.00;;;;;;;;;;5062574;28;20577;-70
2022/08/07 00:57:58;;;;;;;1.10;0.50;;;;;;;;;;5074978;28;20476;-69
2022/08/07 01:00:24;;;;;;;1.47;0.50;;;;;;;;;;5062917;28;20520;-69
2022/08/07 01:02:50;;;;;;;1.37;0.50;;;;;;;;;;5059232;28;20433;-69
2022/08/07 01:05:16;;;;;;;0.80;0.60;;;;;;;;;;5076067;28;20500;-69
2022/08/07 01:07:42;;;;;;;0.50;0.50;;;;;;;;;;5076376;28;20491;-68
2022/08/07 01:10:09;;;;;;;0.60;0.60;;;;;;;;;;5057405;28;20429;-69
2022/08/07 01:12:35;;;;;;;0.50;0.50;;;;;;;;;;5057709;28;20473;-69
2022/08/07 01:15:02;;;;;;;6.40;1.00;;;;;;;;;;5073795;28;20428;-69
2022/08/07 01:17:29;;;;;;;4.10;0.70;;;;;;;;;;5075909;28;20460;-69
2022/08/07 01:19:57;;;;;;;0.70;0.70;;;;;;;;;;5075694;28;20510;-68
2022/08/07 01:22:24;;;;;;;4.20;0.90;;;;;;;;;;5075336;28;20421;-69
2022/08/07 01:24:50;;;;;;;0.60;0.60;;;;;;;;;;5075618;28;20449;-66
2022/08/07 01:27:16;;;;;;;0.60;0.60;;;;;;;;;;5075220;28;20418;-67
2022/08/07 01:29:43;;;;;;;1.07;0.90;;;;;;;;;;5074114;28;20805;-67
2022/08/07 01:32:09;;;;;;;0.97;0.73;;;;;;;;;;5059784;28;20426;-67
2022/08/07 01:34:35;;;;;;;0.60;0.60;;;;;;;;;;5055784;28;20461;-68
2022/08/07 01:37:01;;;;;;;0.47;0.47;;;;;;;;;;5055697;28;20556;-69
2022/08/07 01:39:27;;;;;;;0.80;0.80;;;;;;;;;;5056809;28;20440;-69
2022/08/07 01:41:54;;;;;;;0.57;0.53;;;;;;;;;;5074437;28;20441;-69
2022/08/07 01:44:20;;;;;;;1.70;0.60;;;;;;;;;;5061463;28;20429;-69
2022/08/07 01:46:46;;;;;;;0.60;0.60;;;;;;;;;;5055387;28;20919;-69
2022/08/07 01:49:12;;;;;;;0.83;0.83;;;;;;;;;;5070294;28;20463;-67
2022/08/07 01:51:40;;;;;;;0.67;0.67;;;;;;;;;;5070794;28;20429;-69
2022/08/07 01:54:07;;;;;;;0.70;0.70;;;;;;;;;;5073734;28;20467;-70
2022/08/07 01:56:39;;;;;;;0.50;0.50;;;;;;;;;;5074418;28;20517;-70
2022/08/07 01:59:07;;;;;;;0.87;0.57;;;;;;;;;;5069575;28;21006;-69
2022/08/07 02:01:36;;;;;;;3.23;0.57;;;;;;;;;;5055830;28;20422;-68
2022/08/07 02:04:31;;;;;;;1.73;0.53;;;;;;;;;;5064104;28;20921;-68
2022/08/07 02:06:58;;;;;;;0.70;0.70;;;;;;;;;;5070039;28;20473;-69
2022/08/07 02:09:25;;;;;;;1.20;0.40;;;;;;;;;;5073522;28;20437;-69
2022/08/07 02:11:51;;;;;;;0.50;0.50;;;;;;;;;;5072770;28;20480;-68
2022/08/07 02:14:19;;;;;;;1.60;0.70;;;;;;;;;;5074779;28;20437;-70
2022/08/07 02:16:46;;;;;;;2.93;0.63;;;;;;;;;;5074599;28;20472;-66
2022/08/07 02:19:12;;;;;;;0.67;0.67;;;;;;;;;;5073397;28;20445;-66
2022/08/07 02:21:39;;;;;;;0.50;0.50;;;;;;;;;;5072705;28;20455;-67
2022/08/07 02:24:06;;;;;;;0.67;0.67;;;;;;;;;;5074663;28;20508;-66
2022/08/07 02:26:33;;;;;;;2.53;0.93;;;;;;;;;;5074620;28;20410;-69
2022/08/07 02:28:59;;;;;;;1.47;0.80;;;;;;;;;;5056581;28;20448;-70
2022/08/07 02:31:26;;;;;;;0.67;0.67;;;;;;;;;;5068620;28;20449;-69
2022/08/07 02:33:55;;;;;;;1.63;0.87;;;;;;;;;;5055661;28;20417;-68
2022/08/07 02:36:22;;;;;;;2.03;0.90;;;;;;;;;;5054847;28;20521;-68
2022/08/07 02:38:48;;;;;;;0.67;0.60;;;;;;;;;;5055597;28;20438;-69
2022/08/07 02:41:14;;;;;;;3.50;0.50;;;;;;;;;;5070367;28;20429;-68
2022/08/07 02:43:42;;;;;;;0.80;0.80;;;;;;;;;;5072539;28;20528;-69
2022/08/07 02:46:09;;;;;;;0.50;0.50;;;;;;;;;;5074048;28;20524;-69
2022/08/07 02:48:38;;;;;;;2.73;0.50;;;;;;;;;;5074009;28;20520;-69
2022/08/07 02:51:10;;;;;;;0.57;0.57;;;;;;;;;;5074013;28;20432;-68
2022/08/07 02:53:37;;;;;;;0.60;0.60;;;;;;;;;;5070821;28;20483;-70
2022/08/07 02:56:04;;;;;;;0.50;0.50;;;;;;;;;;5061003;28;20454;-69
2022/08/07 02:58:30;;;;;;;1.30;0.60;;;;;;;;;;5054150;28;20916;-69
2022/08/07 03:00:57;;;;;;;0.83;0.83;;;;;;;;;;5053555;28;20957;-69
2022/08/07 03:03:24;;;;;;;0.83;0.50;;;;;;;;;;5053512;28;20979;-69
2022/08/07 03:05:52;;;;;;;2.10;1.90;;;;;;;;;;5055167;28;20436;-70
2022/08/07 03:08:18;;;;;;;0.57;0.57;;;;;;;;;;5054073;28;20423;-69
2022/08/07 03:10:45;;;;;;;0.83;0.83;;;;;;;;;;5054639;28;20946;-69
2022/08/07 03:13:12;;;;;;;12.30;0.70;;;;;;;;;;5068761;28;20463;-68
2022/08/07 03:15:38;;;;;;;1.73;0.60;;;;;;;;;;5054845;28;20529;-69
2022/08/07 03:18:04;;;;;;;1.77;0.57;;;;;;;;;;5053699;28;20482;-69
2022/08/07 03:20:30;;;;;;;2.20;0.70;;;;;;;;;;5052454;28;20438;-69
2022/08/07 03:22:57;;;;;;;0.70;0.67;;;;;;;;;;5054394;28;20533;-69
2022/08/07 03:25:24;;;;;;;0.73;0.73;;;;;;;;;;5053001;28;20433;-68
2022/08/07 03:27:50;;;;;;;0.63;0.63;;;;;;;;;;5053419;28;20891;-68
2022/08/07 03:30:16;;;;;;;1.13;0.70;;;;;;;;;;5068542;28;20434;-69
2022/08/07 03:32:43;;;;;;;1.80;1.03;;;;;;;;;;5072901;28;20434;-69
2022/08/07 03:35:14;;;;;;;1.03;0.70;;;;;;;;;;5070190;28;20776;-69
2022/08/07 03:37:41;;;;;;;2.80;0.60;;;;;;;;;;5071292;28;20885;-68
2022/08/07 03:40:08;;;;;;;0.53;0.53;;;;;;;;;;5063747;28;20485;-68
2022/08/07 03:42:34;;;;;;;2.00;0.60;;;;;;;;;;5052956;28;20779;-69
2022/08/07 03:45:00;;;;;;;0.67;0.63;;;;;;;;;;5053303;28;20430;-69
2022/08/07 03:47:27;;;;;;;0.80;0.80;;;;;;;;;;5054276;28;20430;-69
2022/08/07 03:49:53;;;;;;;1.03;0.80;;;;;;;;;;5053478;28;20426;-69
2022/08/07 03:52:21;;;;;;;0.60;0.60;;;;;;;;;;5060057;28;20484;-69
2022/08/07 03:54:47;;;;;;;0.40;0.40;;;;;;;;;;5054054;28;20466;-69
2022/08/07 03:57:13;;;;;;;1.53;0.53;;;;;;;;;;5053660;28;20523;-69
2022/08/07 03:59:40;;;;;;;0.40;0.40;;;;;;;;;;5052976;28;20438;-69
2022/08/07 04:02:07;;;;;;;0.73;0.73;;;;;;;;;;5052422;28;20434;-69
2022/08/07 04:04:33;;;;;;;2.60;0.80;;;;;;;;;;5068857;28;20430;-68
2022/08/07 04:06:59;;;;;;;0.93;0.93;;;;;;;;;;5040535;28;20438;-69
2022/08/07 04:09:27;;;;;;;0.60;0.60;;;;;;;;;;5053994;28;20516;-69
2022/08/07 04:11:53;;;;;;;0.93;0.70;;;;;;;;;;5052309;28;20946;-69
2022/08/07 04:14:19;;;;;;;3.13;0.50;;;;;;;;;;5068088;28;20867;-69
2022/08/07 04:16:47;;;;;;;1.07;0.77;;;;;;;;;;5072485;28;20428;-68
2022/08/07 04:19:13;;;;;;;0.53;0.53;;;;;;;;;;5069398;28;20445;-67
2022/08/07 04:21:39;;;;;;;0.50;0.50;;;;;;;;;;5072235;28;20466;-71
2022/08/07 04:24:09;;;;;;;0.50;0.50;;;;;;;;;;5072423;28;20456;-70
2022/08/07 04:26:35;;;;;;;0.90;0.77;;;;;;;;;;5072096;28;20429;-70
2022/08/07 04:29:01;;;;;;;7.83;0.70;;;;;;;;;;5070704;28;20413;-70
2022/08/07 04:31:28;;;;;;;0.70;0.40;;;;;;;;;;5063474;28;20426;-70
2022/08/07 04:33:54;;;;;;;0.50;0.50;;;;;;;;;;5063192;28;20465;-69
2022/08/07 04:36:20;;;;;;;0.30;0.30;;;;;;;;;;5070674;28;20425;-70
2022/08/07 04:38:46;;;;;;;0.77;0.77;;;;;;;;;;5070543;28;20996;-69
2022/08/07 04:41:12;;;;;;;1.03;0.50;;;;;;;;;;5053229;28;20433;-70
2022/08/07 04:43:41;;;;;;;2.77;0.70;;;;;;;;;;5053310;28;20842;-70
2022/08/07 04:46:29;;;;;;;0.93;0.57;;;;;;;;;;5051115;28;20438;-70
2022/08/07 04:49:05;;;;;;;0.50;0.50;;;;;;;;;;5068552;28;20436;-71
2022/08/07 04:51:45;;;;;;;1.77;1.30;;;;;;;;;;5068738;28;20436;-69
2022/08/07 04:54:22;;;;;;;0.80;0.60;;;;;;;;;;5069056;28;20453;-70
2022/08/07 04:57:06;;;;;;;2.40;0.87;;;;;;;;;;5052168;28;20468;-70
2022/08/07 04:59:59;;;;;;;1.10;0.60;;;;;;;;;;5053510;28;20526;-69
2022/08/07 05:02:44;;;;;;;2.17;0.60;;;;;;;;;;5037134;28;20437;-70
2022/08/07 05:05:18;;;;;;;1.00;1.00;;;;;;;;;;5069401;28;20472;-70
2022/08/07 05:07:53;;;;;;;0.90;0.70;;;;;;;;;;5052438;28;20422;-70
2022/08/07 05:10:21;;;;;;;0.50;0.50;;;;;;;;;;5052970;28;20428;-70
2022/08/07 05:12:59;;;;;;;0.80;0.80;;;;;;;;;;5052982;28;20838;-69
2022/08/07 05:15:26;;;;;;;0.70;0.70;;;;;;;;;;5053280;28;20487;-69
2022/08/07 05:17:57;;;;;;;0.80;0.50;;;;;;;;;;5053339;28;20508;-70
2022/08/07 05:20:30;;;;;;;0.90;0.90;;;;;;;;;;5052150;28;20422;-70
2022/08/07 05:22:59;;;;;;;0.57;0.50;;;;;;;;;;5053172;28;20430;-71
2022/08/07 05:25:26;;;;;;;0.60;0.60;;;;;;;;;;5056607;28;20433;-71
2022/08/07 05:27:53;;;;;;;0.70;0.70;;;;;;;;;;5055965;28;20929;-70
2022/08/07 05:30:19;;;;;;;0.93;0.93;;;;;;;;;;5074314;28;20864;-71
2022/08/07 05:32:46;;;;;;;0.67;0.67;;;;;;;;;;5073356;28;20429;-71
2022/08/07 05:35:13;;;;;;;0.60;0.60;;;;;;;;;;5072479;28;20475;-71
2022/08/07 05:37:39;;;;;;;1.90;0.97;;;;;;;;;;5073761;28;20569;-71
2022/08/07 05:40:06;;;;;;;0.70;0.70;;;;;;;;;;5073804;28;20413;-70
2022/08/07 05:42:32;;;;;;;1.23;0.70;;;;;;;;;;5060125;28;20437;-70
2022/08/07 05:44:58;;;;;;;0.70;0.70;;;;;;;;;;5057164;28;20431;-70
2022/08/07 05:47:24;;;;;;;0.77;0.60;;;;;;;;;;5069860;28;20574;-70
2022/08/07 05:49:51;;;;;;;1.03;0.70;;;;;;;;;;5073742;28;20459;-70
2022/08/07 05:52:18;;;;;;;7.60;0.60;;;;;;;;;;5074399;28;20821;-70
2022/08/07 05:54:44;;;;;;;0.40;0.40;;;;;;;;;;5066964;28;20828;-70
2022/08/07 05:57:11;;;;;;;0.60;0.60;;;;;;;;;;5062177;28;20843;-68
2022/08/07 05:59:39;;;;;;;1.40;0.70;;;;;;;;;;5063300;28;20426;-68
2022/08/07 06:02:07;;;;;;;1.70;0.70;;;;;;;;;;5054711;28;20946;-69
2022/08/07 06:04:37;;;;;;;3.83;1.03;;;;;;;;;;5056201;28;20433;-69
2022/08/07 06:07:04;;;;;;;2.67;0.63;;;;;;;;;;5055134;28;20772;-70
2022/08/07 06:09:31;;;;;;;3.67;0.97;;;;;;;;;;5055149;28;20427;-70
2022/08/07 06:11:57;;;;;;;0.63;0.63;;;;;;;;;;5054482;28;20415;-70
2022/08/07 06:14:23;;;;;;;1.23;0.63;;;;;;;;;;5056135;28;20450;-70
2022/08/07 06:16:50;;;;;;;0.60;0.60;;;;;;;;;;5054902;28;20919;-69
2022/08/07 06:19:17;;;;;;;0.60;0.53;;;;;;;;;;5054825;28;20453;-69
2022/08/07 06:21:44;;;;;;;1.00;0.60;;;;;;;;;;5054514;28;20406;-70
2022/08/07 06:24:10;;;;;;;0.70;0.70;;;;;;;;;;5049417;28;20802;-71
2022/08/07 06:26:38;;;;;;;1.97;0.70;;;;;;;;;;5053460;28;20835;-70
2022/08/07 06:29:04;;;;;;;0.50;0.50;;;;;;;;;;5054355;28;20531;-70
2022/08/07 06:31:30;;;;;;;0.50;0.50;;;;;;;;;;5054114;28;20776;-69
2022/08/07 06:33:56;;;;;;;0.60;0.60;;;;;;;;;;5057248;28;20448;-68
2022/08/07 06:36:25;;;;;;;4.00;0.60;;;;;;;;;;5074358;28;20436;-69
2022/08/07 06:38:51;;;;;;;0.90;0.90;;;;;;;;;;5074065;28;20508;-74
2022/08/07 06:41:19;;;;;;;0.93;0.70;;;;;;;;;;5065074;28;20415;-74
2022/08/07 06:43:46;;;;;;;2.33;0.57;;;;;;;;;;5053710;28;20439;-74
2022/08/07 06:46:12;;;;;;;1.17;0.77;;;;;;;;;;5054090;28;20942;-74
2022/08/07 06:48:39;;;;;;;1.47;0.90;;;;;;;;;;5053977;28;20415;-70
2022/08/07 06:51:06;;;;;;;1.67;0.90;;;;;;;;;;5053379;28;20450;-74
2022/08/07 06:53:34;;;;;;;0.73;0.50;;;;;;;;;;5054412;28;20560;-73
2022/08/07 06:56:00;;;;;;;2.00;0.80;;;;;;;;;;5053835;28;20836;-73
2022/08/07 06:58:27;;;;;;;0.70;0.70;;;;;;;;;;5052856;28;20981;-76
2022/08/07 07:00:53;;;;;;;0.60;0.60;;;;;;;;;;5053213;28;20914;-75
2022/08/07 07:03:19;;;;;;;2.40;0.60;;;;;;;;;;5054759;28;20422;-74
2022/08/07 07:05:46;;;;;;;1.87;1.03;;;;;;;;;;5054038;28;20429;-75
2022/08/07 07:08:12;;;;;;;0.90;0.63;;;;;;;;;;5050957;28;20931;-73
2022/08/07 07:10:38;;;;;;;2.43;1.03;;;;;;;;;;5053303;28;20520;-74
2022/08/07 07:13:04;;;;;;;2.83;0.90;;;;;;;;;;5055296;28;20458;-73
2022/08/07 07:15:32;;;;;;;0.73;0.73;;;;;;;;;;5052982;28;20422;-72
2022/08/07 07:18:02;;;;;;;2.60;0.70;;;;;;;;;;5052426;28;20920;-72
2022/08/07 07:20:36;;;;;;;0.67;0.67;;;;;;;;;;5057027;28;20426;-73
2022/08/07 07:23:03;;;;;;;0.50;0.50;;;;;;;;;;5054057;28;20430;-72
2022/08/07 07:25:29;;;;;;;0.93;0.87;;;;;;;;;;5053280;28;20418;-73
2022/08/07 07:28:05;;;;;;;1.10;1.10;;;;;;;;;;5053653;28;20430;-74
2022/08/07 07:30:36;;;;;;;1.90;1.60;;;;;;;;;;5053798;28;20464;-67
2022/08/07 07:33:03;;;;;;;0.73;0.73;;;;;;;;;;5061848;28;20796;-66
2022/08/07 07:35:29;;;;;;;0.67;0.67;;;;;;;;;;5073469;28;20415;-66
2022/08/07 07:37:56;;;;;;;2.33;0.80;;;;;;;;;;5073305;28;20489;-66
2022/08/07 07:40:22;;;;;;;0.70;0.70;;;;;;;;;;5071436;28;20437;-68
2022/08/07 07:42:51;;;;;;;1.07;1.07;;;;;;;;;;5071775;28;20444;-74
2022/08/07 07:45:19;;;;;;;2.20;0.80;;;;;;;;;;5051486;28;20430;-73
2022/08/07 07:47:46;;;;;;;0.77;0.77;;;;;;;;;;5052576;28;20496;-74
2022/08/07 07:50:13;;;;;;;6.43;0.83;;;;;;;;;;5057468;28;20456;-78
2022/08/07 07:52:40;;;;;;;2.67;0.83;;;;;;;;;;5072189;28;20445;-74
2022/08/07 07:55:07;;;;;;;3.20;1.30;;;;;;;;;;5072360;28;20464;-74
2022/08/07 07:57:33;;;;;;;1.00;1.00;;;;;;;;;;5059659;28;20539;-73
2022/08/07 08:00:00;;;;;;;0.87;0.87;;;;;;;;;;5052889;28;20422;-73
2022/08/07 08:02:28;;;;;;;1.00;1.00;;;;;;;;;;5055122;28;20437;-74
2022/08/07 08:04:55;;;;;;;1.10;1.10;;;;;;;;;;5052776;28;20417;-75
2022/08/07 08:07:22;;;;;;;2.50;0.97;;;;;;;;;;5047552;28;20919;-74
2022/08/07 08:09:49;;;;;;;2.10;1.20;;;;;;;;;;5034435;28;20419;-72
2022/08/07 08:12:15;;;;;;;1.73;1.00;;;;;;;;;;5044869;28;20433;-72
2022/08/07 08:14:41;;;;;;;1.50;1.40;;;;;;;;;;5052697;28;20505;-73
2022/08/07 08:17:09;;;;;;;1.60;1.00;;;;;;;;;;5069733;28;20841;-72
2022/08/07 08:19:37;;;;;;;0.80;0.80;;;;;;;;;;5058383;28;20540;-72
2022/08/07 08:27:37;;;;;;;1.07;1.07;;;;;;;;;;5066317;28;20476;-72
2022/08/07 08:30:07;;;;;;;1.07;0.97;;;;;;;;;;5059578;28;20431;-72
2022/08/07 08:32:36;;;;;;;2.20;1.07;;;;;;;;;;5051704;28;20844;-72
2022/08/07 08:35:03;;;;;;;0.90;0.90;;;;;;;;;;5050225;28;20527;-74
2022/08/07 08:37:30;;;;;;;1.00;1.00;;;;;;;;;;5051947;28;20818;-73
2022/08/07 08:39:56;;;;;;;2.30;0.90;;;;;;;;;;5051880;28;20453;-73
2022/08/07 08:42:27;;;;;;;1.20;1.20;;;;;;;;;;5044769;28;20435;-72
2022/08/07 08:44:53;;;;;;;0.87;0.87;;;;;;;;;;5032248;28;20489;-72
2022/08/07 08:47:21;;;;;;;1.77;0.70;;;;;;;;;;5032357;28;20451;-73
2022/08/07 08:50:06;;;;;;;0.70;0.70;;;;;;;;;;5032260;28;20263;-73
2022/08/07 08:52:47;;;;;;;3.47;1.00;;;;;;;;;;5040472;28;20434;-74
2022/08/07 08:55:33;;;;;;;1.17;1.17;;;;;;;;;;5051615;28;20853;-73
2022/08/07 08:58:06;;;;;;;1.60;0.73;;;;;;;;;;5053163;28;21040;-77
2022/08/07 09:00:39;;;;;;;1.00;1.00;;;;;;;;;;5056187;28;20409;-72
2022/08/07 09:03:15;;;;;;;1.70;1.10;;;;;;;;;;5056717;28;20433;-74
2022/08/07 09:05:58;;;;;;;5.23;1.30;;;;;;;;;;5054628;28;20409;-75
2022/08/07 09:08:33;;;;;;;1.67;0.97;;;;;;;;;;5056042;28;20413;-73
2022/08/07 09:11:18;;;;;;;0.87;0.87;;;;;;;;;;5055905;28;20406;-72
2022/08/07 09:13:53;;;;;;;4.67;1.20;;;;;;;;;;5057126;28;20441;-68
2022/08/07 09:16:19;;;;;;;1.20;1.20;;;;;;;;;;5056068;28;20422;-68
2022/08/07 09:18:54;;;;;;;1.20;1.13;;;;;;;;;;5067367;28;20481;-69
2022/08/07 09:21:39;;;;;;;1.10;1.10;;;;;;;;;;5075517;28;20186;-68
2022/08/07 09:24:14;;;;;;;1.37;1.27;;;;;;;;;;5074257;28;20425;-70
2022/08/07 09:26:40;;;;;;;2.20;0.90;;;;;;;;;;5076008;28;20777;-70
2022/08/07 09:29:12;;;;;;;1.00;0.73;;;;;;;;;;5075929;28;20410;-70
2022/08/07 09:31:44;;;;;;;1.10;1.10;;;;;;;;;;5075533;28;20232;-71
2022/08/07 09:34:14;;;;;;;0.70;0.70;;;;;;;;;;5074070;28;20425;-69
2022/08/07 09:36:46;;;;;;;4.20;1.63;;;;;;;;;;5064088;28;20434;-69
2022/08/07 09:39:22;;;;;;;0.90;0.90;;;;;;;;;;5055475;28;20422;-70
2022/08/07 09:41:48;;;;;;;1.20;1.10;;;;;;;;;;5055364;28;20910;-70
2022/08/07 09:44:32;;;;;;;1.23;1.23;;;;;;;;;;5056738;28;20519;-69
2022/08/07 09:46:58;;;;;;;2.77;1.00;;;;;;;;;;5055674;28;20215;-69
2022/08/07 09:49:33;;;;;;;1.30;1.30;;;;;;;;;;5055703;28;20446;-71
2022/08/07 09:52:17;;;;;;;1.37;1.27;;;;;;;;;;5050169;28;20199;-71
2022/08/07 09:54:45;;;;;;;1.53;1.43;;;;;;;;;;5054735;28;20484;-71
2022/08/07 09:57:20;;;;;;;2.20;1.17;;;;;;;;;;5054755;28;20985;-70
2022/08/07 10:00:09;;;;;;;2.20;1.33;;;;;;;;;;5055306;28;20933;-71
2022/08/07 10:02:56;;;;;;;1.90;1.33;;;;;;;;;;5053802;28;20429;-70
2022/08/07 10:05:26;;;;;;;1.33;1.13;;;;;;;;;;5074213;28;20932;-71
2022/08/07 10:08:05;;;;;;;1.33;1.33;;;;;;;;;;5074553;28;21028;-71
2022/08/07 10:10:39;;;;;;;2.47;1.40;;;;;;;;;;5056497;28;20410;-71
2022/08/07 10:13:24;;;;;;;6.47;1.23;;;;;;;;;;5055286;28;20457;-69
2022/08/07 10:16:03;;;;;;;1.70;1.70;;;;;;;;;;5054740;28;20418;-70
2022/08/07 10:18:29;;;;;;;5.77;1.20;;;;;;;;;;5054436;28;20496;-71
2022/08/07 10:20:55;;;;;;;2.00;1.20;;;;;;;;;;5054718;28;21024;-70
2022/08/07 10:23:21;;;;;;;1.53;1.43;;;;;;;;;;5055633;28;20184;-71
2022/08/07 10:26:06;;;;;;;1.30;1.03;;;;;;;;;;5054461;28;20426;-71
2022/08/07 10:28:44;;;;;;;7.83;1.30;;;;;;;;;;5054902;28;20192;-71
2022/08/07 10:31:21;;;;;;;4.50;1.53;;;;;;;;;;5054790;28;20418;-70
2022/08/07 10:34:06;;;;;;;1.27;1.27;;;;;;;;;;5055813;28;20430;-70
2022/08/07 10:36:41;;;;;;;1.90;1.27;;;;;;;;;;5054664;28;20487;-70
2022/08/07 10:39:22;;;;;;;2.00;1.10;;;;;;;;;;5054350;28;20985;-68
2022/08/07 10:41:54;;;;;;;1.40;1.40;;;;;;;;;;5054155;28;20925;-70
2022/08/07 10:44:27;;;;;;;2.10;1.10;;;;;;;;;;5055704;28;20438;-70
2022/08/07 10:47:05;;;;;;;3.90;1.00;;;;;;;;;;5053242;28;20450;-71
2022/08/07 10:49:39;;;;;;;4.20;1.37;;;;;;;;;;5052588;28;20446;-71
2022/08/07 10:52:08;;;;;;;1.03;1.03;;;;;;;;;;5053974;28;20421;-71
2022/08/07 10:54:37;;;;;;;1.30;1.30;;;;;;;;;;5054926;28;21001;-70
2022/08/07 10:57:12;;;;;;;1.30;1.20;;;;;;;;;;5054143;28;20458;-72
2022/08/07 10:59:47;;;;;;;1.70;1.33;;;;;;;;;;5073369;28;20456;-71
2022/08/07 11:02:32;;;;;;;1.57;1.57;;;;;;;;;;5073676;28;20455;-70
2022/08/07 11:05:18;;;;;;;0.80;0.80;;;;;;;;;;5072224;28;20432;-69
2022/08/07 11:07:44;;;;;;;1.20;1.20;;;;;;;;;;5074142;28;20421;-71
2022/08/07 11:10:19;;;;;;;1.17;1.17;;;;;;;;;;5073680;28;20406;-70
2022/08/07 11:12:47;;;;;;;1.00;1.00;;;;;;;;;;5071197;28;20483;-71
2022/08/07 11:15:17;;;;;;;1.00;1.00;;;;;;;;;;5073782;28;20406;-71
2022/08/07 11:17:47;;;;;;;0.87;0.87;;;;;;;;;;5073815;28;20473;-70
2022/08/07 11:20:21;;;;;;;2.67;1.13;;;;;;;;;;5073517;28;20409;-70
2022/08/07 11:22:54;;;;;;;1.20;1.20;;;;;;;;;;5067659;28;20428;-70
2022/08/07 11:25:31;;;;;;;1.20;1.10;;;;;;;;;;5054719;28;20461;-70
2022/08/07 11:28:03;;;;;;;1.37;1.33;;;;;;;;;;5054736;28;20438;-70
2022/08/07 11:30:51;;;;;;;1.10;1.10;;;;;;;;;;5054780;28;20435;-69
2022/08/07 11:33:20;;;;;;;1.00;1.00;;;;;;;;;;5058156;28;20425;-71
2022/08/07 11:35:53;;;;;;;1.37;1.27;;;;;;;;;;5073591;28;20426;-71
2022/08/07 11:38:37;;;;;;;1.00;1.00;;;;;;;;;;5073326;28;20576;-68
2022/08/07 11:41:08;;;;;;;1.03;0.90;;;;;;;;;;5071352;28;20463;-69
2022/08/07 11:44:01;;;;;;;1.53;1.43;;;;;;;;;;5061628;28;20918;-70
2022/08/07 11:46:34;;;;;;;4.93;1.33;;;;;;;;;;5053038;28;20414;-70
2022/08/07 11:49:28;;;;;;;9.63;1.23;;;;;;;;;;5052016;28;20508;-69
2022/08/07 11:52:13;;;;;;;1.53;1.37;;;;;;;;;;5022310;28;20461;-70
2022/08/07 11:54:58;;;;;;;1.27;1.27;;;;;;;;;;5030722;28;21008;-70
2022/08/07 11:57:26;;;;;;;1.13;1.13;;;;;;;;;;5060096;28;20985;-70
2022/08/07 12:00:00;;;;;;;1.27;0.97;;;;;;;;;;5051031;28;20537;-71
2022/08/07 12:02:46;;;;;;;2.00;1.13;;;;;;;;;;5052441;28;20992;-71
2022/08/07 12:05:21;;;;;;;1.17;1.17;;;;;;;;;;5053086;28;20437;-69
2022/08/07 12:07:56;;;;;;;1.30;0.90;;;;;;;;;;5052868;28;20484;-70
2022/08/07 12:10:25;;;;;;;4.10;1.30;;;;;;;;;;5053242;28;20560;-71
2022/08/07 12:12:54;;;;;;;1.10;1.10;;;;;;;;;;5038040;28;20794;-71
2022/08/07 12:15:20;;;;;;;1.90;1.23;;;;;;;;;;5053108;28;20778;-70
2022/08/07 12:17:48;;;;;;;1.17;1.17;;;;;;;;;;5050028;28;20493;-71
2022/08/07 12:20:44;;;;;;;1.40;1.10;;;;;;;;;;5050193;28;20430;-75
2022/08/07 12:23:22;;;;;;;3.20;1.00;;;;;;;;;;5009968;28;20638;-74
2022/08/07 12:25:52;;;;;;;1.40;1.30;;;;;;;;;;5028969;28;20430;-75
2022/08/07 12:28:22;;;;;;;1.73;1.67;;;;;;;;;;5030519;28;20426;-75
2022/08/07 12:30:50;;;;;;;1.27;1.27;;;;;;;;;;5032944;28;20419;-75
2022/08/07 12:33:18;;;;;;;1.20;1.20;;;;;;;;;;5031658;28;20428;-75
2022/08/07 12:35:45;;;;;;;1.40;0.90;;;;;;;;;;5032661;28;20411;-75
2022/08/07 12:38:12;;;;;;;1.00;1.00;;;;;;;;;;5032557;28;20479;-75
2022/08/07 12:40:39;;;;;;;1.17;1.17;;;;;;;;;;5032268;28;20481;-76
2022/08/07 12:43:07;;;;;;;1.37;1.27;;;;;;;;;;5032402;28;20924;-74
2022/08/07 12:45:37;;;;;;;0.87;0.87;;;;;;;;;;5031358;28;20439;-75
2022/08/07 12:48:07;;;;;;;0.90;0.90;;;;;;;;;;5032583;28;20958;-76
2022/08/07 12:50:50;;;;;;;0.87;0.87;;;;;;;;;;5031513;28;20478;-76
2022/08/07 12:53:24;;;;;;;0.90;0.90;;;;;;;;;;5031982;28;20457;-75
2022/08/07 12:56:09;;;;;;;1.27;1.17;;;;;;;;;;5032305;28;20431;-76
2022/08/07 12:58:37;;;;;;;1.00;1.00;;;;;;;;;;5032613;28;20573;-75
2022/08/07 13:01:26;;;;;;;1.27;1.17;;;;;;;;;;5032384;28;20510;-75
2022/08/07 13:04:11;;;;;;;1.07;1.07;;;;;;;;;;5032435;28;20473;-75
2022/08/07 13:06:49;;;;;;;1.00;1.00;;;;;;;;;;5032521;28;20999;-75
2022/08/07 13:09:40;;;;;;;1.00;1.00;;;;;;;;;;5032090;28;20845;-75
2022/08/07 13:12:09;;;;;;;1.27;1.10;;;;;;;;;;5032013;28;20415;-75
2022/08/07 13:14:46;;;;;;;1.27;1.13;;;;;;;;;;5032528;28;20407;-76
2022/08/07 13:17:17;;;;;;;0.93;0.93;;;;;;;;;;5032391;28;20476;-75
2022/08/07 13:19:51;;;;;;;32.47;2.30;;;;;;;;;;5032442;28;20426;-75
2022/08/07 13:22:26;;;;;;;0.73;0.73;;;;;;;;;;5030618;28;20915;-75
2022/08/07 13:25:18;;;;;;;1.30;1.20;;;;;;;;;;5031945;28;20930;-75
2022/08/07 13:27:52;;;;;;;0.97;0.97;;;;;;;;;;5031152;28;20427;-76
2022/08/07 13:30:19;;;;;;;2.67;1.00;;;;;;;;;;5032247;28;21008;-75
2022/08/07 13:33:03;;;;;;;0.80;0.80;;;;;;;;;;5031952;28;20514;-76
2022/08/07 13:35:31;;;;;;;1.20;1.20;;;;;;;;;;5032172;28;20929;-76
2022/08/07 13:38:00;;;;;;;2.93;1.30;;;;;;;;;;5032119;28;20483;-75
2022/08/07 13:40:26;;;;;;;1.60;0.90;;;;;;;;;;5030444;28;20535;-76
2022/08/07 13:42:54;;;;;;;0.93;0.93;;;;;;;;;;5031807;28;20459;-76
2022/08/07 13:45:20;;;;;;;1.97;1.00;;;;;;;;;;5035805;28;20464;-75
2022/08/07 13:47:47;;;;;;;0.97;0.97;;;;;;;;;;5035724;28;20434;-76
2022/08/07 13:50:13;;;;;;;1.10;1.10;;;;;;;;;;5035702;28;20427;-75
2022/08/07 13:52:43;;;;;;;1.00;1.00;;;;;;;;;;5035145;28;20423;-75
2022/08/07 13:55:13;;;;;;;1.77;1.33;;;;;;;;;;5034937;28;20471;-75
2022/08/07 13:57:41;;;;;;;1.33;1.23;;;;;;;;;;5035499;28;20467;-75
2022/08/07 14:00:08;;;;;;;1.47;1.40;;;;;;;;;;5035319;28;20436;-76
2022/08/07 14:02:35;;;;;;;0.93;0.93;;;;;;;;;;5033781;28;20435;-76
2022/08/07 14:05:03;;;;;;;1.90;1.00;;;;;;;;;;5035351;28;20433;-75
2022/08/07 14:07:33;;;;;;;0.90;0.90;;;;;;;;;;5035348;28;20422;-76
2022/08/07 14:10:00;;;;;;;2.10;1.20;;;;;;;;;;5034961;28;20446;-75
2022/08/07 14:12:30;;;;;;;0.87;0.87;;;;;;;;;;5034874;28;20407;-76
2022/08/07 14:15:01;;;;;;;1.10;1.00;;;;;;;;;;5035213;28;20485;-75
2022/08/07 14:17:27;;;;;;;5.40;1.00;;;;;;;;;;5035093;28;20822;-75
2022/08/07 14:19:59;;;;;;;2.10;1.20;;;;;;;;;;5033830;28;20783;-76
2022/08/07 14:22:30;;;;;;;2.67;1.00;;;;;;;;;;5034682;28;20420;-75
2022/08/07 14:24:58;;;;;;;0.80;0.80;;;;;;;;;;5034567;28;20522;-75
2022/08/07 14:27:27;;;;;;;1.60;1.60;;;;;;;;;;5033723;28;20480;-76
2022/08/07 14:29:55;;;;;;;1.83;1.13;;;;;;;;;;5034904;28;20470;-74
2022/08/07 14:32:25;;;;;;;1.30;1.20;;;;;;;;;;5034509;28;20434;-75
2022/08/07 14:34:51;;;;;;;2.97;0.80;;;;;;;;;;5034759;28;20565;-75
2022/08/07 14:37:18;;;;;;;0.67;0.67;;;;;;;;;;5034729;28;20565;-76
2022/08/07 14:39:46;;;;;;;2.30;1.00;;;;;;;;;;5034393;28;20419;-76
2022/08/07 14:42:12;;;;;;;0.93;0.90;;;;;;;;;;5034344;28;20827;-75
2022/08/07 14:44:43;;;;;;;0.97;0.97;;;;;;;;;;5034598;28;20505;-75
2022/08/07 14:47:10;;;;;;;1.10;1.03;;;;;;;;;;5034607;28;20409;-75
2022/08/07 14:49:36;;;;;;;1.30;1.30;;;;;;;;;;5033381;28;20454;-75
2022/08/07 14:52:02;;;;;;;1.30;1.30;;;;;;;;;;5032805;28;20438;-75
2022/08/07 14:54:29;;;;;;;3.50;1.67;;;;;;;;;;5033689;28;20466;-75
2022/08/07 14:56:56;;;;;;;2.50;1.50;;;;;;;;;;5033664;28;20462;-74
2022/08/07 14:59:23;;;;;;;2.57;1.40;;;;;;;;;;5034401;28;20423;-75
2022/08/07 15:01:49;;;;;;;1.27;1.27;;;;;;;;;;5033826;28;20425;-75
2022/08/07 15:04:15;;;;;;;3.50;1.50;;;;;;;;;;5034238;28;20431;-76
2022/08/07 15:06:44;;;;;;;5.90;1.20;;;;;;;;;;5034191;28;20928;-75